Time;durP1;ratioP1;P1;durP2;ratioP2;P2;SDS_P1;SDS_P2;PMS_P1;PMS_P2;Temp;Humidity;BMP_temperature;BMP_pressure;BME280_temperature;BME280_humidity;BME280_pressure;Samples;Min_cycle;Max_cycle;Signal;HPM_P1;HPM_P2
2022/11/03 00:01:22;;;;;;;8.15;4.43;;;;;;;;;;10403755;28;20068;-64
2022/11/03 00:06:22;;;;;;;9.13;4.90;;;;;;;;;;10395296;28;20112;-48
2022/11/03 00:11:22;;;;;;;7.18;4.80;;;;;;;;;;10402199;28;20026;-54
2022/11/03 00:16:22;;;;;;;8.52;4.50;;;;;;;;;;10399722;28;20032;-48
2022/11/03 00:21:23;;;;;;;4.32;3.92;;;;;;;;;;10407775;28;20033;-48
2022/11/03 00:26:24;;;;;;;7.78;4.78;;;;;;;;;;10407901;28;20447;-55
2022/11/03 00:31:31;;;;;;;6.15;4.10;;;;;;;;;;10407139;28;20393;-49
2022/11/03 00:36:33;;;;;;;5.97;4.70;;;;;;;;;;10407121;28;20021;-56
2022/11/03 00:41:33;;;;;;;6.93;4.07;;;;;;;;;;10407303;28;20029;-57
2022/11/03 00:46:34;;;;;;;6.35;4.22;;;;;;;;;;10395105;28;20033;-58
2022/11/03 00:51:34;;;;;;;6.55;4.32;;;;;;;;;;10393958;28;20559;-55
2022/11/03 00:56:36;;;;;;;8.00;4.20;;;;;;;;;;10405065;28;20456;-54
2022/11/03 01:01:41;;;;;;;6.00;4.18;;;;;;;;;;10406627;28;20128;-60
2022/11/03 01:06:53;;;;;;;5.05;3.90;;;;;;;;;;10405363;28;20030;-54
2022/11/03 01:12:07;;;;;;;4.95;3.95;;;;;;;;;;10406239;28;20033;-55
2022/11/03 01:17:08;;;;;;;5.93;4.18;;;;;;;;;;10399161;28;20034;-55
2022/11/03 01:22:09;;;;;;;5.65;4.15;;;;;;;;;;10406430;28;20029;-58
2022/11/03 01:27:12;;;;;;;7.82;3.90;;;;;;;;;;10403560;28;20029;-53
2022/11/03 01:32:12;;;;;;;7.70;4.63;;;;;;;;;;10413775;28;20079;-52
2022/11/03 01:37:12;;;;;;;5.27;3.87;;;;;;;;;;10412793;28;20140;-55
2022/11/03 01:42:13;;;;;;;4.50;3.90;;;;;;;;;;10402126;28;20280;-53
2022/11/03 01:47:30;;;;;;;7.05;3.90;;;;;;;;;;10388715;28;20396;-58
2022/11/03 01:52:33;;;;;;;4.75;3.63;;;;;;;;;;10401611;28;20033;-60
2022/11/03 01:57:38;;;;;;;4.88;3.67;;;;;;;;;;10398824;28;20053;-54
2022/11/03 02:02:39;;;;;;;5.72;3.88;;;;;;;;;;10400470;28;20027;-54
2022/11/03 02:07:48;;;;;;;5.68;4.15;;;;;;;;;;10390083;28;20516;-55
2022/11/03 02:12:49;;;;;;;4.65;3.67;;;;;;;;;;10394840;28;20124;-54
2022/11/03 02:17:50;;;;;;;4.28;3.45;;;;;;;;;;10384698;28;20036;-57
2022/11/03 02:22:59;;;;;;;5.38;3.58;;;;;;;;;;10397766;28;20064;-57
2022/11/03 02:28:00;;;;;;;5.70;4.10;;;;;;;;;;10391950;28;20029;-63
2022/11/03 02:33:04;;;;;;;7.45;3.50;;;;;;;;;;10412087;28;20108;-61
2022/11/03 02:38:08;;;;;;;9.20;4.28;;;;;;;;;;10410495;28;20471;-63
2022/11/03 02:43:09;;;;;;;4.38;3.33;;;;;;;;;;10402270;28;20104;-63
2022/11/03 02:48:10;;;;;;;5.07;4.03;;;;;;;;;;10394387;28;20037;-60
2022/11/03 02:53:12;;;;;;;5.88;3.80;;;;;;;;;;10411150;28;20060;-63
2022/11/03 02:58:12;;;;;;;5.55;4.25;;;;;;;;;;10410775;28;20053;-63
2022/11/03 03:03:25;;;;;;;6.30;3.90;;;;;;;;;;10410863;28;20037;-62
2022/11/03 03:08:25;;;;;;;4.82;3.90;;;;;;;;;;10396037;28;20104;-61
2022/11/03 03:13:26;;;;;;;4.65;3.55;;;;;;;;;;10392900;28;20045;-54
2022/11/03 03:18:26;;;;;;;4.33;3.33;;;;;;;;;;10404196;28;20029;-48
2022/11/03 03:23:30;;;;;;;5.82;3.75;;;;;;;;;;10410312;28;20034;-49
2022/11/03 03:28:39;;;;;;;3.88;3.22;;;;;;;;;;10397850;28;20029;-56
2022/11/03 03:33:41;;;;;;;5.07;3.70;;;;;;;;;;10391160;28;20041;-61
2022/11/03 03:38:43;;;;;;;5.40;3.60;;;;;;;;;;10408956;28;20041;-55
2022/11/03 03:43:44;;;;;;;4.45;3.40;;;;;;;;;;10408301;28;20377;-62
2022/11/03 03:48:44;;;;;;;3.67;3.25;;;;;;;;;;10405934;28;20034;-62
2022/11/03 03:53:48;;;;;;;6.65;3.20;;;;;;;;;;10402776;28;20029;-55
2022/11/03 03:58:49;;;;;;;3.95;3.10;;;;;;;;;;10390958;28;20041;-56
2022/11/03 04:03:49;;;;;;;4.72;3.70;;;;;;;;;;10408597;28;20029;-57
2022/11/03 04:08:49;;;;;;;4.20;3.47;;;;;;;;;;10395754;28;20018;-55
2022/11/03 04:24:27;;;;;;;3.80;3.30;;;;;;;;;;10383157;28;19913;-56
2022/11/03 04:29:28;;;;;;;3.42;3.13;;;;;;;;;;10407963;28;20021;-48
2022/11/03 04:34:28;;;;;;;3.33;2.90;;;;;;;;;;10402606;28;20080;-50
2022/11/03 04:39:28;;;;;;;5.78;3.70;;;;;;;;;;10387537;28;20025;-48
2022/11/03 04:44:29;;;;;;;3.92;3.38;;;;;;;;;;10405171;28;20040;-50
2022/11/03 04:49:29;;;;;;;3.15;2.85;;;;;;;;;;10397799;28;20029;-48
2022/11/03 04:54:29;;;;;;;3.22;2.88;;;;;;;;;;10385013;28;20038;-61
2022/11/03 04:59:30;;;;;;;3.30;3.00;;;;;;;;;;10408733;28;20291;-49
2022/11/03 05:04:30;;;;;;;3.28;2.75;;;;;;;;;;10409727;28;20025;-62
2022/11/03 05:09:30;;;;;;;3.35;2.78;;;;;;;;;;10390887;28;20161;-63
2022/11/03 05:14:31;;;;;;;5.32;3.05;;;;;;;;;;10416583;28;20094;-59
2022/11/03 05:19:32;;;;;;;4.90;3.00;;;;;;;;;;10408424;28;20029;-54
2022/11/03 05:24:34;;;;;;;3.45;3.15;;;;;;;;;;10400710;28;20021;-63
2022/11/03 05:29:35;;;;;;;3.15;2.80;;;;;;;;;;10405663;28;20542;-62
2022/11/03 05:34:45;;;;;;;6.25;2.75;;;;;;;;;;10419785;28;20499;-65
2022/11/03 05:39:46;;;;;;;3.05;2.70;;;;;;;;;;10406680;28;20040;-65
2022/11/03 05:44:47;;;;;;;3.30;3.00;;;;;;;;;;10415796;28;20390;-62
2022/11/03 05:49:53;;;;;;;4.00;2.90;;;;;;;;;;10407847;28;20037;-62
2022/11/03 05:54:55;;;;;;;3.30;3.00;;;;;;;;;;10403401;28;20029;-49
2022/11/03 05:59:59;;;;;;;4.90;2.90;;;;;;;;;;10419729;28;20042;-55
2022/11/03 06:05:00;;;;;;;3.17;2.80;;;;;;;;;;10414208;28;20373;-64
2022/11/03 06:10:00;;;;;;;4.07;3.10;;;;;;;;;;10416537;28;20029;-63
2022/11/03 06:15:03;;;;;;;3.40;2.67;;;;;;;;;;10407486;28;20028;-60
2022/11/03 06:20:06;;;;;;;5.05;3.40;;;;;;;;;;10399131;28;20025;-61
2022/11/03 06:25:13;;;;;;;6.22;3.38;;;;;;;;;;10411072;28;20128;-61
2022/11/03 06:30:16;;;;;;;4.80;3.45;;;;;;;;;;10411860;28;20060;-58
2022/11/03 06:35:16;;;;;;;5.05;3.70;;;;;;;;;;10409272;28;20047;-62
2022/11/03 06:40:17;;;;;;;5.10;3.43;;;;;;;;;;10411668;28;20026;-63
2022/11/03 06:45:22;;;;;;;4.30;3.38;;;;;;;;;;10399422;28;20462;-58
2022/11/03 06:50:28;;;;;;;5.85;4.03;;;;;;;;;;10407465;28;20044;-59
2022/11/03 06:55:30;;;;;;;10.25;3.95;;;;;;;;;;10408922;28;20529;-60
2022/11/03 07:00:30;;;;;;;4.22;3.65;;;;;;;;;;10409201;28;20563;-57
2022/11/03 07:05:31;;;;;;;11.15;4.22;;;;;;;;;;10409739;28;20025;-55
2022/11/03 07:10:32;;;;;;;12.35;4.25;;;;;;;;;;10407364;28;20033;-60
2022/11/03 07:15:36;;;;;;;15.95;4.45;;;;;;;;;;10385357;28;20496;-58
2022/11/03 07:20:37;;;;;;;15.50;5.25;;;;;;;;;;10384757;28;20033;-54
2022/11/03 07:25:38;;;;;;;23.75;4.57;;;;;;;;;;10371692;28;20053;-58
2022/11/03 07:30:38;;;;;;;17.35;5.47;;;;;;;;;;10384986;28;20048;-57
2022/11/03 07:35:42;;;;;;;7.95;4.15;;;;;;;;;;10409974;28;20029;-57
2022/11/03 07:40:43;;;;;;;9.98;4.18;;;;;;;;;;10397060;28;20032;-58
2022/11/03 07:45:49;;;;;;;12.48;4.28;;;;;;;;;;10408766;28;20389;-56
2022/11/03 07:50:50;;;;;;;7.72;4.13;;;;;;;;;;10390955;28;20061;-57
2022/11/03 07:55:52;;;;;;;8.65;4.63;;;;;;;;;;10371992;28;20034;-57
2022/11/03 08:00:56;;;;;;;11.75;4.72;;;;;;;;;;10371396;28;20513;-57
2022/11/03 08:05:56;;;;;;;9.27;4.43;;;;;;;;;;10403159;28;20489;-56
2022/11/03 08:10:57;;;;;;;10.90;4.85;;;;;;;;;;10404037;28;20082;-57
2022/11/03 08:15:57;;;;;;;9.77;4.60;;;;;;;;;;10396584;28;20034;-57
2022/11/03 08:20:57;;;;;;;10.07;4.80;;;;;;;;;;10394027;28;20021;-56
2022/11/03 08:25:58;;;;;;;6.40;4.40;;;;;;;;;;10407502;28;20071;-59
2022/11/03 08:31:03;;;;;;;16.67;4.83;;;;;;;;;;10392075;28;20028;-59
2022/11/03 08:36:04;;;;;;;6.05;4.53;;;;;;;;;;10368367;28;20034;-59
2022/11/03 08:41:04;;;;;;;8.93;4.75;;;;;;;;;;10376335;28;20029;-59
2022/11/03 08:46:04;;;;;;;6.22;4.32;;;;;;;;;;10375456;28;20018;-59
2022/11/03 08:51:06;;;;;;;7.90;4.90;;;;;;;;;;10372945;28;20030;-59
2022/11/03 08:56:07;;;;;;;6.53;4.82;;;;;;;;;;10372878;28;20026;-60
2022/11/03 09:01:07;;;;;;;5.80;4.73;;;;;;;;;;10372197;28;20046;-59
2022/11/03 09:06:07;;;;;;;9.75;4.90;;;;;;;;;;10374515;28;20037;-59
2022/11/03 09:11:07;;;;;;;7.93;4.93;;;;;;;;;;10390630;28;20040;-55
2022/11/03 09:16:08;;;;;;;6.43;4.50;;;;;;;;;;10394902;28;20454;-59
2022/11/03 09:21:08;;;;;;;9.45;4.82;;;;;;;;;;10406380;28;20022;-58
2022/11/03 09:26:08;;;;;;;7.20;5.00;;;;;;;;;;10406093;28;20244;-58
2022/11/03 09:31:09;;;;;;;7.37;4.83;;;;;;;;;;10406405;28;20075;-59
2022/11/03 09:36:09;;;;;;;6.53;4.95;;;;;;;;;;10405996;28;20461;-56
2022/11/03 09:41:16;;;;;;;9.23;4.50;;;;;;;;;;10393143;28;20053;-59
2022/11/03 09:46:17;;;;;;;8.55;5.40;;;;;;;;;;10393003;28;20029;-59
2022/11/03 09:51:19;;;;;;;6.72;4.53;;;;;;;;;;10388876;28;20029;-59
2022/11/03 09:56:21;;;;;;;7.60;4.47;;;;;;;;;;10407904;28;20106;-58
2022/11/03 10:01:21;;;;;;;9.10;5.15;;;;;;;;;;10405386;28;20494;-58
2022/11/03 10:06:22;;;;;;;9.30;4.70;;;;;;;;;;10411877;28;20025;-59
2022/11/03 10:11:22;;;;;;;8.10;4.97;;;;;;;;;;10402313;28;20393;-54
2022/11/03 10:16:23;;;;;;;9.63;5.25;;;;;;;;;;10401824;28;20702;-59
2022/11/03 10:21:29;;;;;;;8.77;4.90;;;;;;;;;;10410341;28;20381;-58
2022/11/03 10:26:41;;;;;;;7.60;5.55;;;;;;;;;;10399742;28;20026;-59
2022/11/03 10:31:42;;;;;;;9.77;5.32;;;;;;;;;;10405849;28;20021;-59
2022/11/03 10:36:42;;;;;;;8.83;4.87;;;;;;;;;;10398712;28;20021;-50
2022/11/03 10:41:54;;;;;;;7.05;4.97;;;;;;;;;;10391297;28;20625;-58
2022/11/03 10:47:17;;;;;;;8.25;5.40;;;;;;;;;;10397757;28;20377;-50
2022/11/03 10:52:22;;;;;;;12.52;5.90;;;;;;;;;;10401529;28;20052;-59
2022/11/03 10:57:23;;;;;;;9.73;5.00;;;;;;;;;;10397153;28;20022;-60
2022/11/03 11:02:25;;;;;;;13.95;5.30;;;;;;;;;;10389045;28;20396;-59
2022/11/03 11:07:45;;;;;;;7.68;5.45;;;;;;;;;;10409146;28;20479;-48
2022/11/03 11:13:02;;;;;;;8.18;5.13;;;;;;;;;;10398355;28;20041;-59
2022/11/03 11:18:03;;;;;;;8.43;4.45;;;;;;;;;;10407988;28;20037;-59
2022/11/03 11:23:22;;;;;;;8.30;5.17;;;;;;;;;;10405426;28;20037;-60
2022/11/03 11:28:22;;;;;;;8.77;4.80;;;;;;;;;;10408434;28;20490;-59
2022/11/03 11:33:24;;;;;;;6.22;4.35;;;;;;;;;;10398278;28;20124;-60
2022/11/03 11:38:43;;;;;;;6.70;5.22;;;;;;;;;;10398228;28;20111;-60
2022/11/03 11:43:43;;;;;;;7.53;5.43;;;;;;;;;;10406947;28;20033;-60
2022/11/03 11:48:43;;;;;;;8.50;5.85;;;;;;;;;;10389585;28;20389;-59
2022/11/03 11:53:44;;;;;;;7.47;5.57;;;;;;;;;;10407742;28;20424;-57
2022/11/03 11:58:44;;;;;;;6.93;5.50;;;;;;;;;;10379434;28;20037;-56
2022/11/03 12:03:45;;;;;;;11.23;5.70;;;;;;;;;;10392512;28;20029;-58
2022/11/03 12:08:45;;;;;;;7.07;5.18;;;;;;;;;;10406884;28;20055;-57
2022/11/03 12:13:47;;;;;;;7.85;5.43;;;;;;;;;;10399429;28;20033;-58
2022/11/03 12:18:48;;;;;;;9.70;5.93;;;;;;;;;;10390383;28;20108;-57
2022/11/03 12:23:48;;;;;;;8.63;5.20;;;;;;;;;;10405449;28;20034;-57
2022/11/03 12:28:48;;;;;;;12.18;5.18;;;;;;;;;;10395546;28;20045;-58
2022/11/03 12:33:48;;;;;;;8.57;5.25;;;;;;;;;;10400593;28;20025;-57
2022/11/03 12:38:49;;;;;;;7.35;5.10;;;;;;;;;;10406215;28;20026;-54
2022/11/03 12:43:50;;;;;;;10.75;6.38;;;;;;;;;;10403999;28;20351;-56
2022/11/03 12:48:51;;;;;;;7.95;5.50;;;;;;;;;;10390127;28;20583;-58
2022/11/03 12:53:51;;;;;;;10.57;6.03;;;;;;;;;;10402669;28;20033;-58
2022/11/03 12:58:51;;;;;;;12.23;6.35;;;;;;;;;;10372417;28;20500;-54
2022/11/03 13:03:52;;;;;;;10.27;5.88;;;;;;;;;;10370887;28;20455;-57
2022/11/03 13:08:52;;;;;;;11.77;5.50;;;;;;;;;;10389835;28;20370;-59
2022/11/03 13:13:54;;;;;;;11.52;6.13;;;;;;;;;;10378265;28;20486;-58
2022/11/03 13:18:54;;;;;;;8.32;5.63;;;;;;;;;;10371844;28;20026;-55
2022/11/03 13:23:55;;;;;;;15.07;5.57;;;;;;;;;;10409961;28;20025;-55
2022/11/03 13:28:55;;;;;;;8.43;5.65;;;;;;;;;;10414553;28;20105;-58
2022/11/03 13:33:55;;;;;;;9.43;5.73;;;;;;;;;;10414481;28;20460;-58
2022/11/03 13:38:56;;;;;;;8.73;5.85;;;;;;;;;;10412475;28;20045;-58
2022/11/03 13:43:56;;;;;;;13.27;6.03;;;;;;;;;;10421162;28;20021;-56
2022/11/03 13:48:56;;;;;;;8.93;5.85;;;;;;;;;;10394985;28;20403;-52
2022/11/03 13:53:56;;;;;;;11.15;6.28;;;;;;;;;;10400562;28;20223;-56
2022/11/03 13:58:57;;;;;;;10.75;5.65;;;;;;;;;;10411979;28;20127;-52
2022/11/03 14:03:57;;;;;;;13.77;6.03;;;;;;;;;;10412097;28;20231;-54
2022/11/03 14:08:57;;;;;;;11.23;6.43;;;;;;;;;;10412539;28;20037;-55
2022/11/03 14:13:57;;;;;;;11.35;6.72;;;;;;;;;;10413002;28;20032;-58
2022/11/03 14:18:58;;;;;;;14.20;5.93;;;;;;;;;;10405490;28;20037;-54
2022/11/03 14:23:58;;;;;;;14.30;7.00;;;;;;;;;;10412564;28;20032;-57
2022/11/03 14:28:58;;;;;;;11.63;6.30;;;;;;;;;;10412263;28;20029;-50
2022/11/03 14:33:59;;;;;;;12.30;6.18;;;;;;;;;;10411019;28;20367;-48
2022/11/03 14:39:00;;;;;;;12.27;5.80;;;;;;;;;;10412364;28;20473;-47
2022/11/03 14:44:01;;;;;;;34.13;8.10;;;;;;;;;;10412020;28;20071;-46
2022/11/03 14:49:01;;;;;;;343.20;26.83;;;;;;;;;;10393974;28;20037;-57
2022/11/03 14:54:02;;;;;;;39.50;7.88;;;;;;;;;;10399303;28;20051;-55
2022/11/03 14:59:02;;;;;;;51.70;8.00;;;;;;;;;;10372776;28;20045;-57
2022/11/03 15:04:02;;;;;;;40.95;7.60;;;;;;;;;;10378809;28;20037;-57
2022/11/03 15:09:03;;;;;;;23.87;7.17;;;;;;;;;;10393166;28;20076;-58
2022/11/03 15:14:04;;;;;;;16.02;7.22;;;;;;;;;;10403260;28;20029;-57
2022/11/03 15:19:05;;;;;;;13.75;6.85;;;;;;;;;;10403952;28;20029;-57
2022/11/03 15:24:05;;;;;;;12.07;6.57;;;;;;;;;;10397194;28;20056;-57
2022/11/03 15:29:05;;;;;;;16.90;6.90;;;;;;;;;;10397431;28;20025;-57
2022/11/03 15:34:06;;;;;;;12.88;6.90;;;;;;;;;;10396691;28;20080;-57
2022/11/03 15:39:06;;;;;;;15.00;6.55;;;;;;;;;;10382969;28;20028;-57
2022/11/03 15:44:06;;;;;;;10.45;5.75;;;;;;;;;;10396632;28;20021;-57
2022/11/03 15:49:06;;;;;;;10.27;6.50;;;;;;;;;;10384466;28;20044;-57
2022/11/03 15:54:07;;;;;;;11.40;6.15;;;;;;;;;;10394356;28;20428;-57
2022/11/03 15:59:07;;;;;;;12.67;6.70;;;;;;;;;;10383111;28;20136;-57
2022/11/03 16:04:07;;;;;;;10.47;5.90;;;;;;;;;;10395849;28;20109;-57
2022/11/03 16:09:07;;;;;;;9.52;6.15;;;;;;;;;;10403517;28;20028;-57
2022/11/03 16:14:08;;;;;;;9.60;4.53;;;;;;;;;;10394540;28;20034;-57
2022/11/03 16:19:09;;;;;;;13.20;5.18;;;;;;;;;;10399274;28;20489;-56
2022/11/03 16:24:10;;;;;;;7.95;5.78;;;;;;;;;;10408755;28;20524;-57
2022/11/03 16:29:10;;;;;;;8.52;5.32;;;;;;;;;;10395278;28;20104;-56
2022/11/03 16:34:11;;;;;;;7.35;5.20;;;;;;;;;;10408275;28;20037;-57
2022/11/03 16:39:11;;;;;;;12.98;5.78;;;;;;;;;;10395090;28;20425;-57
2022/11/03 16:44:11;;;;;;;9.63;5.67;;;;;;;;;;10394497;28;20576;-57
2022/11/03 16:49:11;;;;;;;9.60;5.32;;;;;;;;;;10382066;28;20029;-57
2022/11/03 16:54:12;;;;;;;12.70;6.30;;;;;;;;;;10390445;28;20113;-57
2022/11/03 16:59:12;;;;;;;7.80;5.32;;;;;;;;;;10399284;28;20045;-58
2022/11/03 17:04:12;;;;;;;9.77;5.93;;;;;;;;;;10393449;28;20029;-57
2022/11/03 17:09:12;;;;;;;8.02;5.70;;;;;;;;;;10407998;28;20037;-57
2022/11/03 17:14:13;;;;;;;10.57;5.60;;;;;;;;;;10404797;28;20029;-56
2022/11/03 17:19:14;;;;;;;10.87;6.20;;;;;;;;;;10401717;28;20045;-57
2022/11/03 17:24:14;;;;;;;10.07;5.63;;;;;;;;;;10389780;28;20452;-57
2022/11/03 17:29:15;;;;;;;8.60;5.93;;;;;;;;;;10383647;28;20045;-57
2022/11/03 17:34:20;;;;;;;9.45;6.10;;;;;;;;;;10378713;28;20550;-56
2022/11/03 17:39:24;;;;;;;8.02;5.65;;;;;;;;;;10385293;28;20167;-57
2022/11/03 17:44:24;;;;;;;11.00;5.78;;;;;;;;;;10400363;28;20031;-57
2022/11/03 17:49:24;;;;;;;11.90;6.17;;;;;;;;;;10391648;28;20038;-57
2022/11/03 17:54:27;;;;;;;8.13;6.18;;;;;;;;;;10388842;28;20033;-57
2022/11/03 17:59:27;;;;;;;8.52;5.95;;;;;;;;;;10387810;28;20053;-57
2022/11/03 18:04:27;;;;;;;9.45;6.00;;;;;;;;;;10387834;28;20034;-57
2022/11/03 18:09:27;;;;;;;8.75;6.10;;;;;;;;;;10406736;28;20025;-57
2022/11/03 18:14:28;;;;;;;8.68;6.05;;;;;;;;;;10407336;28;20040;-57
2022/11/03 18:19:29;;;;;;;10.43;6.40;;;;;;;;;;10410141;28;20025;-57
2022/11/03 18:24:29;;;;;;;9.93;6.20;;;;;;;;;;10402706;28;20292;-57
2022/11/03 18:29:29;;;;;;;10.27;6.75;;;;;;;;;;10411575;28;20400;-57
2022/11/03 18:34:30;;;;;;;13.18;6.28;;;;;;;;;;10418783;28;20032;-57
2022/11/03 18:39:30;;;;;;;16.13;6.60;;;;;;;;;;10394227;28;20520;-57
2022/11/03 18:44:31;;;;;;;9.52;7.10;;;;;;;;;;10395691;28;20523;-57
2022/11/03 18:49:32;;;;;;;11.90;6.60;;;;;;;;;;10402319;28;20128;-57
2022/11/03 18:54:33;;;;;;;11.88;6.90;;;;;;;;;;10409235;28;20366;-57
2022/11/03 18:59:36;;;;;;;15.20;7.60;;;;;;;;;;10397315;28;20041;-57
2022/11/03 19:04:36;;;;;;;11.55;8.32;;;;;;;;;;10403971;28;20018;-57
2022/11/03 19:09:37;;;;;;;9.47;7.03;;;;;;;;;;10383153;28;20029;-57
2022/11/03 19:14:39;;;;;;;11.98;8.10;;;;;;;;;;10401653;28;20553;-57
2022/11/03 19:19:39;;;;;;;16.15;8.48;;;;;;;;;;10398098;28;20029;-57
2022/11/03 19:24:40;;;;;;;16.23;8.13;;;;;;;;;;10400124;28;20030;-57
2022/11/03 19:29:40;;;;;;;15.60;8.68;;;;;;;;;;10397567;28;20504;-56
2022/11/03 19:34:41;;;;;;;14.20;8.48;;;;;;;;;;10406694;28;20037;-57
2022/11/03 19:39:42;;;;;;;15.27;9.23;;;;;;;;;;10407596;28;20037;-56
2022/11/03 19:44:43;;;;;;;14.63;9.57;;;;;;;;;;10408506;28;20480;-57
2022/11/03 19:49:43;;;;;;;18.60;9.43;;;;;;;;;;10405935;28;20465;-57
2022/11/03 19:54:45;;;;;;;13.68;8.70;;;;;;;;;;10416234;28;20036;-57
2022/11/03 19:59:46;;;;;;;14.00;8.85;;;;;;;;;;10399349;28;20397;-57
2022/11/03 20:04:46;;;;;;;16.67;8.85;;;;;;;;;;10396883;28;20021;-57
2022/11/03 20:09:46;;;;;;;17.80;8.57;;;;;;;;;;10410588;28;20045;-57
2022/11/03 20:14:47;;;;;;;14.65;7.90;;;;;;;;;;10405741;28;20129;-57
2022/11/03 20:19:47;;;;;;;16.58;7.78;;;;;;;;;;10399377;28;20020;-56
2022/11/03 20:24:48;;;;;;;16.50;8.07;;;;;;;;;;10407250;28;20079;-57
2022/11/03 20:29:48;;;;;;;13.65;9.10;;;;;;;;;;10406320;28;20548;-56
2022/11/03 20:34:48;;;;;;;14.00;8.13;;;;;;;;;;10404465;28;20064;-56
2022/11/03 20:39:49;;;;;;;17.70;8.52;;;;;;;;;;10394971;28;20510;-57
2022/11/03 20:44:49;;;;;;;23.67;10.17;;;;;;;;;;10406035;28;20034;-56
2022/11/03 20:49:49;;;;;;;23.50;9.47;;;;;;;;;;10393041;28;20026;-55
2022/11/03 20:54:50;;;;;;;15.20;8.68;;;;;;;;;;10393112;28;20990;-54
2022/11/03 20:59:50;;;;;;;17.23;8.38;;;;;;;;;;10406343;28;20461;-56
2022/11/03 21:04:51;;;;;;;18.63;9.23;;;;;;;;;;10413407;28;20030;-56
2022/11/03 21:09:51;;;;;;;17.90;7.80;;;;;;;;;;10406398;28;20041;-55
2022/11/03 21:20:10;;;;;;;19.05;7.90;;;;;;;;;;10406043;28;20260;-55
2022/11/03 21:25:15;;;;;;;14.70;8.13;;;;;;;;;;10406722;28;20250;-56
2022/11/03 21:30:16;;;;;;;17.70;8.35;;;;;;;;;;10405581;28;20033;-55
2022/11/03 21:35:18;;;;;;;14.43;7.88;;;;;;;;;;10405427;28;20025;-56
2022/11/03 21:40:18;;;;;;;17.80;7.10;;;;;;;;;;10400840;28;20091;-56
2022/11/03 21:45:19;;;;;;;15.40;7.40;;;;;;;;;;10417234;28;20472;-55
2022/11/03 21:50:19;;;;;;;12.88;7.07;;;;;;;;;;10411565;28;20029;-54
2022/11/03 21:55:19;;;;;;;12.05;6.65;;;;;;;;;;10409351;28;20087;-49
2022/11/03 22:00:20;;;;;;;21.48;7.47;;;;;;;;;;10405466;28;20088;-57
2022/11/03 22:05:20;;;;;;;15.37;6.90;;;;;;;;;;10412570;28;20464;-58
2022/11/03 22:10:21;;;;;;;22.53;7.20;;;;;;;;;;10393873;28;20041;-57
2022/11/03 22:36:36;;;;;;;19.33;6.95;;;;;;;;;;10383485;28;20029;-57
2022/11/03 22:46:55;;;;;;;20.85;7.60;;;;;;;;;;10402405;28;20123;-58
2022/11/03 22:51:56;;;;;;;11.00;6.80;;;;;;;;;;10420629;28;20481;-58
2022/11/03 22:56:56;;;;;;;17.38;7.78;;;;;;;;;;10409627;28;20534;-58
2022/11/03 23:01:56;;;;;;;13.02;6.63;;;;;;;;;;10413025;28;20488;-58
2022/11/03 23:06:56;;;;;;;10.43;6.55;;;;;;;;;;10412192;28;20104;-58
2022/11/03 23:11:57;;;;;;;11.38;6.80;;;;;;;;;;10412129;28;20083;-58
2022/11/03 23:16:57;;;;;;;11.30;6.78;;;;;;;;;;10404647;28;20046;-58
2022/11/03 23:21:57;;;;;;;13.70;7.75;;;;;;;;;;10413219;28;20025;-58
2022/11/03 23:27:00;;;;;;;10.73;6.60;;;;;;;;;;10410239;28;20025;-58
2022/11/03 23:32:01;;;;;;;13.82;7.88;;;;;;;;;;10413953;28;20113;-58
2022/11/03 23:37:01;;;;;;;15.20;8.32;;;;;;;;;;10409969;28;20075;-58
2022/11/03 23:42:01;;;;;;;13.45;8.38;;;;;;;;;;10410676;28;20390;-57
2022/11/03 23:52:28;;;;;;;15.25;8.63;;;;;;;;;;10379210;28;20063;-57
